createdAt,value
2022-07-30T00:00:50.434Z,6.25
2022-07-30T00:03:20.627Z,6.15
2022-07-30T00:05:50.666Z,7.25
2022-07-30T00:08:20.664Z,7.60
2022-07-30T00:10:51.626Z,7.25
2022-07-30T00:13:21.797Z,11.32
2022-07-30T00:15:53.491Z,7.65
2022-07-30T00:18:23.394Z,7.15
2022-07-30T00:20:53.482Z,8.93
2022-07-30T00:23:26.669Z,10.48
2022-07-30T00:25:56.875Z,7.30
2022-07-30T00:28:26.695Z,6.85
2022-07-30T00:30:58.163Z,7.97
2022-07-30T00:33:28.146Z,8.07
2022-07-30T00:35:58.286Z,12.70
2022-07-30T00:38:28.230Z,9.05
2022-07-30T00:40:59.335Z,7.57
2022-07-30T00:43:30.356Z,7.70
2022-07-30T00:46:01.600Z,7.10
2022-07-30T00:48:31.668Z,10.75
2022-07-30T00:51:01.742Z,12.25
2022-07-30T00:53:33.378Z,7.97
2022-07-30T00:56:04.831Z,9.93
2022-07-30T00:58:35.020Z,11.77
2022-07-30T01:01:06.458Z,8.57
2022-07-30T01:03:38.423Z,7.40
2022-07-30T01:06:14.149Z,8.48
2022-07-30T01:08:44.525Z,7.28
2022-07-30T01:11:14.570Z,7.05
2022-07-30T01:13:46.244Z,6.75
2022-07-30T01:16:18.461Z,8.98
2022-07-30T01:19:06.796Z,7.75
2022-07-30T01:21:41.390Z,7.72
2022-07-30T01:24:23.525Z,8.35
2022-07-30T01:26:56.554Z,10.38
2022-07-30T01:29:28.722Z,8.80
2022-07-30T01:32:01.222Z,7.07
2022-07-30T01:34:35.197Z,10.85
2022-07-30T01:37:08.544Z,10.65
2022-07-30T01:39:40.108Z,6.88
2022-07-30T01:42:14.693Z,10.30
2022-07-30T01:44:47.971Z,9.25
2022-07-30T01:47:19.954Z,7.80
2022-07-30T01:49:52.208Z,7.32
2022-07-30T01:52:23.776Z,8.27
2022-07-30T01:54:57.564Z,8.57
2022-07-30T02:00:03.336Z,7.30
2022-07-30T02:02:33.345Z,6.25
2022-07-30T02:05:04.002Z,7.30
2022-07-30T02:07:40.604Z,8.68
2022-07-30T02:10:15.523Z,7.75
2022-07-30T02:12:52.416Z,10.38
2022-07-30T02:15:30.359Z,9.25
2022-07-30T02:18:04.091Z,10.38
2022-07-30T02:20:38.404Z,8.40
2022-07-30T02:23:12.435Z,14.20
2022-07-30T02:25:48.302Z,7.82
2022-07-30T02:28:22.604Z,8.00
2022-07-30T02:31:01.124Z,8.32
2022-07-30T02:33:41.173Z,8.95
2022-07-30T02:36:21.055Z,7.65
2022-07-30T02:38:52.552Z,8.57
2022-07-30T02:41:25.001Z,11.80
2022-07-30T02:43:58.227Z,8.27
2022-07-30T02:46:29.336Z,11.60
2022-07-30T02:49:00.397Z,10.73
2022-07-30T02:51:32.154Z,8.48
2022-07-30T02:54:04.504Z,12.35
2022-07-30T02:56:36.644Z,9.75
2022-07-30T02:59:09.871Z,11.68
2022-07-30T03:01:40.063Z,7.95
2022-07-30T03:04:11.286Z,12.93
2022-07-30T03:06:43.152Z,7.78
2022-07-30T03:09:16.766Z,10.15
2022-07-30T03:11:48.600Z,18.15
2022-07-30T03:14:20.833Z,24.88
2022-07-30T03:16:57.496Z,11.93
2022-07-30T03:19:32.391Z,23.23
2022-07-30T03:22:04.469Z,14.70
2022-07-30T03:24:36.269Z,23.75
2022-07-30T03:27:08.140Z,11.13
2022-07-30T03:29:41.051Z,11.63
2022-07-30T03:32:13.708Z,8.20
2022-07-30T03:34:45.529Z,13.40
2022-07-30T03:37:17.278Z,10.32
2022-07-30T03:39:48.138Z,14.18
2022-07-30T03:42:18.424Z,9.45
2022-07-30T03:44:50.580Z,11.45
2022-07-30T03:47:23.818Z,13.52
2022-07-30T03:49:53.879Z,15.05
2022-07-30T03:52:23.843Z,19.88
2022-07-30T03:54:54.373Z,14.35
2022-07-30T03:57:24.501Z,19.75
2022-07-30T03:59:56.025Z,15.32
2022-07-30T04:02:26.024Z,28.25
2022-07-30T04:04:56.417Z,22.83
2022-07-30T04:07:26.635Z,18.83
2022-07-30T04:09:56.558Z,19.67
2022-07-30T04:12:27.144Z,19.38
2022-07-30T04:14:59.191Z,16.27
2022-07-30T04:17:36.480Z,13.02
2022-07-30T04:20:14.214Z,21.50
2022-07-30T04:22:46.909Z,17.00
2022-07-30T04:25:24.069Z,19.50
2022-07-30T04:28:03.145Z,21.33
2022-07-30T04:30:35.418Z,18.40
2022-07-30T04:33:06.343Z,15.23
2022-07-30T04:35:51.139Z,14.90
2022-07-30T04:38:22.331Z,21.58
2022-07-30T04:40:52.536Z,18.33
2022-07-30T04:43:22.618Z,17.63
2022-07-30T04:45:54.443Z,16.25
2022-07-30T04:48:26.745Z,17.65
2022-07-30T04:51:00.614Z,18.17
2022-07-30T04:56:02.598Z,18.13
2022-07-30T04:58:34.904Z,21.23
2022-07-30T05:01:07.053Z,16.60
2022-07-30T05:03:47.964Z,17.60
2022-07-30T05:06:18.744Z,18.30
2022-07-30T05:08:49.484Z,16.08
2022-07-30T05:11:19.485Z,20.30
2022-07-30T05:13:50.498Z,17.63
2022-07-30T05:16:22.662Z,17.85
2022-07-30T05:18:52.823Z,17.52
2022-07-30T05:21:23.068Z,14.35
2022-07-30T05:23:53.130Z,14.05
2022-07-30T05:26:27.666Z,20.55
2022-07-30T05:28:58.105Z,16.20
2022-07-30T05:31:29.502Z,17.60
2022-07-30T05:34:03.669Z,20.92
2022-07-30T05:36:34.428Z,20.15
2022-07-30T05:39:05.657Z,28.63
2022-07-30T05:41:35.750Z,27.30
2022-07-30T05:44:06.228Z,25.95
2022-07-30T05:46:38.034Z,27.48
2022-07-30T05:49:08.356Z,27.02
2022-07-30T05:51:38.462Z,27.80
2022-07-30T05:54:08.429Z,20.98
2022-07-30T05:56:38.496Z,33.72
2022-07-30T05:59:08.447Z,28.70
2022-07-30T06:01:39.892Z,31.00
2022-07-30T06:04:09.840Z,25.10
2022-07-30T06:06:39.755Z,24.52
2022-07-30T06:09:10.282Z,21.45
2022-07-30T06:11:40.434Z,20.80
2022-07-30T06:14:10.880Z,16.17
2022-07-30T06:16:45.452Z,22.33
2022-07-30T06:19:19.675Z,19.40
2022-07-30T06:22:05.480Z,27.42
2022-07-30T06:24:37.382Z,30.02
2022-07-30T06:27:08.124Z,36.72
2022-07-30T06:29:38.143Z,40.08
2022-07-30T06:32:09.652Z,40.50
2022-07-30T06:34:39.585Z,40.70
2022-07-30T06:37:10.748Z,34.22
2022-07-30T06:39:57.685Z,25.42
2022-07-30T06:42:29.038Z,30.23
2022-07-30T06:44:59.016Z,25.42
2022-07-30T06:47:31.358Z,23.63
2022-07-30T06:50:03.110Z,24.10
2022-07-30T06:52:34.087Z,31.60
2022-07-30T06:55:04.887Z,21.25
2022-07-30T06:57:40.112Z,22.77
2022-07-30T07:00:13.365Z,19.42
2022-07-30T07:02:44.770Z,26.85
2022-07-30T07:05:14.860Z,25.38
2022-07-30T07:07:57.837Z,17.80
2022-07-30T07:10:29.399Z,22.65
2022-07-30T07:13:01.772Z,18.27
2022-07-30T07:15:36.607Z,17.92
2022-07-30T07:18:09.605Z,21.40
2022-07-30T07:20:39.960Z,21.35
2022-07-30T07:23:11.998Z,14.02
2022-07-30T07:25:42.642Z,13.77
2022-07-30T07:28:13.665Z,17.15
2022-07-30T07:30:44.521Z,18.38
2022-07-30T07:33:16.464Z,21.95
2022-07-30T07:35:50.292Z,18.85
2022-07-30T07:38:20.686Z,19.42
2022-07-30T07:40:50.756Z,17.98
2022-07-30T07:43:20.737Z,14.02
2022-07-30T07:45:50.659Z,10.30
2022-07-30T07:48:22.490Z,12.40
2022-07-30T07:50:55.014Z,14.85
2022-07-30T07:53:28.321Z,11.75
2022-07-30T07:55:59.769Z,18.08
2022-07-30T07:58:31.032Z,12.88
2022-07-30T08:01:01.932Z,13.07
2022-07-30T08:03:33.643Z,8.77
2022-07-30T08:06:05.724Z,9.25
2022-07-30T08:08:37.649Z,10.68
2022-07-30T08:11:08.237Z,6.72
2022-07-30T08:13:52.165Z,10.35
2022-07-30T08:16:23.767Z,6.75
2022-07-30T08:18:55.098Z,6.63
2022-07-30T08:21:25.569Z,9.77
2022-07-30T08:23:55.493Z,9.85
2022-07-30T08:26:25.946Z,6.68
2022-07-30T08:28:55.746Z,7.97
2022-07-30T08:31:25.689Z,5.95
2022-07-30T08:33:57.364Z,6.10
2022-07-30T08:36:27.361Z,8.82
2022-07-30T08:38:57.432Z,6.97
2022-07-30T08:41:28.228Z,7.18
2022-07-30T08:44:01.363Z,6.35
2022-07-30T08:46:33.217Z,5.63
2022-07-30T08:49:07.562Z,6.93
2022-07-30T08:51:41.103Z,10.20
2022-07-30T08:54:11.078Z,7.30
2022-07-30T08:56:41.054Z,10.02
2022-07-30T08:59:12.904Z,14.18
2022-07-30T09:01:42.864Z,9.43
2022-07-30T09:04:14.431Z,6.18
2022-07-30T09:06:44.370Z,8.15
2022-07-30T09:09:14.224Z,6.50
2022-07-30T09:11:44.769Z,7.10
2022-07-30T09:14:16.325Z,7.75
2022-07-30T09:16:46.632Z,6.85
2022-07-30T09:19:19.915Z,8.13
2022-07-30T09:21:58.228Z,11.35
2022-07-30T09:24:29.164Z,11.85
2022-07-30T09:27:00.885Z,8.95
2022-07-30T09:29:32.456Z,8.02
2022-07-30T09:32:04.255Z,9.18
2022-07-30T09:34:37.729Z,8.27
2022-07-30T09:37:20.450Z,10.38
2022-07-30T09:39:59.469Z,7.10
2022-07-30T09:42:32.076Z,7.65
2022-07-30T09:45:08.232Z,10.95
2022-07-30T09:47:39.699Z,7.57
2022-07-30T09:50:18.011Z,7.40
2022-07-30T09:53:11.786Z,7.35
2022-07-30T09:55:42.602Z,6.25
2022-07-30T09:58:20.028Z,7.28
2022-07-30T10:00:59.422Z,30.85
2022-07-30T10:03:33.870Z,9.15
2022-07-30T10:06:14.027Z,12.50
2022-07-30T10:08:48.255Z,8.93
2022-07-30T10:11:22.779Z,7.57
2022-07-30T10:13:56.745Z,8.85
2022-07-30T10:16:31.086Z,7.35
2022-07-30T10:19:01.663Z,6.63
2022-07-30T10:21:36.147Z,8.88
2022-07-30T10:24:08.213Z,11.27
2022-07-30T10:26:38.427Z,7.70
2022-07-30T10:29:08.576Z,6.93
2022-07-30T10:31:48.862Z,6.93
2022-07-30T10:34:23.589Z,8.73
2022-07-30T10:37:04.830Z,6.63
2022-07-30T10:39:40.106Z,7.93
2022-07-30T10:42:23.081Z,8.00
2022-07-30T10:45:18.087Z,8.20
2022-07-30T10:47:50.018Z,7.15
2022-07-30T10:50:22.682Z,6.75
2022-07-30T10:52:56.260Z,7.25
2022-07-30T10:55:32.865Z,7.22
2022-07-30T10:58:12.414Z,6.18
2022-07-30T11:01:00.974Z,7.43
2022-07-30T11:03:41.702Z,8.45
2022-07-30T11:06:29.345Z,7.55
2022-07-30T11:09:00.710Z,9.18
2022-07-30T11:12:01.401Z,7.95
2022-07-30T11:15:07.286Z,7.97
2022-07-30T11:18:12.339Z,7.82
2022-07-30T11:20:48.849Z,7.25
2022-07-30T11:23:40.698Z,9.40
2022-07-30T11:26:14.094Z,8.07
2022-07-30T11:28:49.626Z,8.20
2022-07-30T11:31:55.042Z,9.68
2022-07-30T11:34:29.814Z,7.63
2022-07-30T11:37:19.094Z,7.15
2022-07-30T11:40:11.618Z,8.13
2022-07-30T11:42:43.811Z,8.75
2022-07-30T11:45:27.107Z,8.02
2022-07-30T11:48:00.302Z,11.30
2022-07-30T11:50:33.027Z,16.20
2022-07-30T11:53:07.509Z,22.52
2022-07-30T11:55:40.046Z,9.98
2022-07-30T11:58:13.071Z,9.30
2022-07-30T12:00:47.972Z,11.20
2022-07-30T12:03:19.389Z,17.55
2022-07-30T12:05:51.148Z,8.95
2022-07-30T12:08:33.466Z,12.30
2022-07-30T12:11:06.094Z,10.80
2022-07-30T12:13:44.066Z,8.30
2022-07-30T12:16:18.158Z,7.88
2022-07-30T12:18:48.739Z,8.95
2022-07-30T12:21:19.089Z,9.52
2022-07-30T12:23:56.775Z,10.15
2022-07-30T12:26:29.399Z,9.70
2022-07-30T12:29:05.044Z,10.25
2022-07-30T12:31:38.551Z,10.82
2022-07-30T12:34:23.285Z,9.38
2022-07-30T12:36:53.940Z,9.52
2022-07-30T12:39:26.405Z,10.20
2022-07-30T12:41:58.657Z,11.90
2022-07-30T12:44:41.080Z,8.95
2022-07-30T12:47:24.153Z,10.40
2022-07-30T12:49:55.837Z,9.25
2022-07-30T12:52:30.850Z,10.32
2022-07-30T12:55:04.416Z,10.25
2022-07-30T12:57:57.001Z,13.00
2022-07-30T13:00:30.714Z,15.10
2022-07-30T13:03:01.111Z,17.42
2022-07-30T13:05:45.064Z,39.65
2022-07-30T13:08:15.700Z,15.05
2022-07-30T13:10:59.836Z,26.88
2022-07-30T13:13:32.882Z,16.40
2022-07-30T13:16:08.203Z,13.17
2022-07-30T13:18:38.753Z,16.25
2022-07-30T13:21:09.555Z,13.43
2022-07-30T13:23:41.228Z,13.32
2022-07-30T13:26:12.427Z,12.30
2022-07-30T13:28:42.526Z,10.05
2022-07-30T13:31:14.386Z,11.98
2022-07-30T13:33:45.236Z,12.32
2022-07-30T13:36:15.768Z,12.15
2022-07-30T13:38:45.963Z,12.07
2022-07-30T13:41:22.601Z,11.75
2022-07-30T13:43:52.682Z,11.50
2022-07-30T13:46:24.133Z,11.48
2022-07-30T13:48:54.341Z,10.20
2022-07-30T13:51:24.526Z,11.00
2022-07-30T13:53:55.236Z,11.23
2022-07-30T13:56:25.628Z,11.05
2022-07-30T13:58:56.487Z,53.97
2022-07-30T14:01:28.479Z,62.97
2022-07-30T14:03:58.915Z,27.05
2022-07-30T14:06:29.202Z,20.65
2022-07-30T14:08:59.551Z,15.27
2022-07-30T14:11:29.647Z,11.32
2022-07-30T14:14:01.062Z,11.32
2022-07-30T14:16:49.616Z,22.20
2022-07-30T14:19:24.682Z,13.07
2022-07-30T14:21:55.006Z,18.90
2022-07-30T14:24:25.293Z,12.35
2022-07-30T14:26:58.173Z,13.25
2022-07-30T14:29:29.819Z,11.88
2022-07-30T14:32:01.403Z,12.13
2022-07-30T14:34:31.478Z,12.73
2022-07-30T14:37:02.396Z,12.80
2022-07-30T14:39:34.998Z,11.98
2022-07-30T14:42:06.473Z,11.95
2022-07-30T14:44:36.823Z,29.90
2022-07-30T14:47:09.123Z,13.52
2022-07-30T14:49:39.239Z,12.45
2022-07-30T14:52:09.427Z,11.52
2022-07-30T14:54:40.101Z,12.43
2022-07-30T14:57:11.463Z,12.05
2022-07-30T14:59:41.631Z,13.38
2022-07-30T15:02:13.032Z,13.85
2022-07-30T15:04:43.314Z,12.13
2022-07-30T15:07:13.519Z,11.27
2022-07-30T15:09:43.644Z,12.27
2022-07-30T15:12:23.834Z,11.85
2022-07-30T15:14:57.782Z,12.00
2022-07-30T15:17:29.368Z,12.43
2022-07-30T15:20:00.535Z,13.55
2022-07-30T15:22:31.522Z,12.05
2022-07-30T15:25:02.095Z,12.93
2022-07-30T15:27:34.267Z,19.25
2022-07-30T15:30:06.259Z,20.77
2022-07-30T15:32:39.029Z,14.65
2022-07-30T15:35:13.591Z,12.65
2022-07-30T15:37:44.218Z,12.45
2022-07-30T15:40:14.543Z,12.75
2022-07-30T15:42:44.883Z,27.42
2022-07-30T15:45:17.680Z,16.60
2022-07-30T15:47:49.774Z,13.45
2022-07-30T15:50:19.914Z,8.25
2022-07-30T15:52:51.630Z,9.27
2022-07-30T15:55:22.311Z,11.30
2022-07-30T15:57:52.546Z,10.75
2022-07-30T16:00:25.608Z,10.15
2022-07-30T16:03:01.464Z,7.43
2022-07-30T16:05:52.533Z,7.93
2022-07-30T16:08:22.696Z,7.25
2022-07-30T16:10:53.199Z,11.48
2022-07-30T16:13:23.629Z,8.23
2022-07-30T16:15:54.305Z,7.38
2022-07-30T16:18:26.123Z,6.97
2022-07-30T16:20:58.957Z,8.07
2022-07-30T16:23:36.500Z,7.10
2022-07-30T16:26:09.407Z,47.45
2022-07-30T16:28:40.663Z,10.97
2022-07-30T16:31:10.701Z,8.32
2022-07-30T16:33:42.365Z,28.05
2022-07-30T16:36:12.804Z,47.33
2022-07-30T16:38:42.953Z,38.55
2022-07-30T16:41:13.735Z,16.30
2022-07-30T16:43:43.910Z,24.02
2022-07-30T16:46:14.308Z,7.82
2022-07-30T16:48:50.354Z,9.27
2022-07-30T16:51:20.819Z,9.43
2022-07-30T16:53:50.943Z,9.38
2022-07-30T16:56:21.508Z,9.60
2022-07-30T16:58:51.694Z,9.25
2022-07-30T17:01:21.808Z,11.30
2022-07-30T17:03:53.386Z,11.68
2022-07-30T17:06:23.653Z,8.88
2022-07-30T17:08:53.909Z,9.40
2022-07-30T17:11:47.441Z,8.98
2022-07-30T17:14:15.713Z,9.35
2022-07-30T17:16:46.219Z,11.00
2022-07-30T17:19:18.196Z,11.07
2022-07-30T17:21:50.554Z,9.20
2022-07-30T17:24:21.261Z,10.20
2022-07-30T17:26:51.690Z,38.45
2022-07-30T17:29:22.183Z,19.80
2022-07-30T17:31:52.426Z,12.80
2022-07-30T17:34:27.079Z,11.35
2022-07-30T17:36:57.291Z,9.77
2022-07-30T17:40:19.872Z,13.25
2022-07-30T17:42:17.936Z,9.95
2022-07-30T17:44:48.295Z,9.55
2022-07-30T17:47:18.573Z,9.68
2022-07-30T17:49:51.645Z,12.27
2022-07-30T17:52:26.606Z,13.07
2022-07-30T17:54:57.221Z,10.77
2022-07-30T17:57:27.759Z,11.35
2022-07-30T17:59:58.155Z,11.48
2022-07-30T18:02:29.299Z,12.82
2022-07-30T18:05:00.985Z,14.57
2022-07-30T18:07:31.472Z,11.00
2022-07-30T18:10:02.089Z,9.15
2022-07-30T18:12:32.623Z,13.07
2022-07-30T18:15:03.815Z,12.02
2022-07-30T18:17:34.826Z,10.20
2022-07-30T18:20:07.882Z,9.90
2022-07-30T18:22:38.203Z,11.48
2022-07-30T18:25:18.015Z,10.35
2022-07-30T18:27:50.197Z,12.60
2022-07-30T18:30:20.423Z,9.77
2022-07-30T18:32:50.556Z,9.70
2022-07-30T18:35:22.290Z,10.40
2022-07-30T18:37:52.455Z,9.45
2022-07-30T18:40:24.236Z,9.63
2022-07-30T18:42:54.766Z,9.68
2022-07-30T18:45:25.715Z,11.07
2022-07-30T18:47:57.151Z,10.05
2022-07-30T18:50:29.051Z,9.93
2022-07-30T18:52:59.065Z,10.35
2022-07-30T18:55:29.111Z,12.25
2022-07-30T18:58:01.313Z,9.35
2022-07-30T19:00:34.353Z,9.73
2022-07-30T19:03:09.979Z,10.45
2022-07-30T19:05:44.577Z,9.02
2022-07-30T19:08:14.660Z,8.88
2022-07-30T19:10:45.180Z,10.30
2022-07-30T19:13:15.922Z,9.80
2022-07-30T19:15:46.930Z,9.95
2022-07-30T19:18:17.614Z,22.83
2022-07-30T19:20:50.893Z,11.30
2022-07-30T19:25:51.541Z,14.48
2022-07-30T19:28:22.027Z,11.48
2022-07-30T19:30:52.124Z,9.75
2022-07-30T19:33:24.314Z,8.40
2022-07-30T19:35:55.945Z,9.52
2022-07-30T19:38:26.159Z,7.45
2022-07-30T19:40:56.951Z,11.43
2022-07-30T19:43:27.202Z,9.82
2022-07-30T19:45:58.781Z,9.25
2022-07-30T19:48:31.646Z,7.10
2022-07-30T19:53:34.939Z,8.45
2022-07-30T19:56:10.711Z,8.68
2022-07-30T19:58:42.240Z,7.82
2022-07-30T20:01:14.719Z,8.27
2022-07-30T20:03:45.549Z,11.60
2022-07-30T20:06:19.384Z,7.93
2022-07-30T20:08:52.485Z,7.82
2022-07-30T20:11:36.029Z,8.32
2022-07-30T20:14:07.008Z,11.30
2022-07-30T20:16:37.821Z,7.65
2022-07-30T20:19:08.339Z,10.75
2022-07-30T20:21:56.383Z,7.18
2022-07-30T20:24:33.069Z,8.32
2022-07-30T20:27:10.083Z,8.30
2022-07-30T20:29:53.446Z,8.68
2022-07-30T20:32:24.865Z,9.50
2022-07-30T20:34:55.596Z,8.30
2022-07-30T20:37:27.770Z,7.32
2022-07-30T20:39:58.171Z,8.65
2022-07-30T20:42:28.586Z,8.38
2022-07-30T20:44:59.558Z,8.85
2022-07-30T20:47:37.489Z,8.38
2022-07-30T20:50:10.580Z,13.80
2022-07-30T20:52:47.006Z,9.95
2022-07-30T20:55:19.344Z,7.53
2022-07-30T21:03:33.502Z,9.55
2022-07-30T21:06:04.638Z,15.70
2022-07-30T21:08:38.340Z,9.20
2022-07-30T21:11:09.590Z,7.00
2022-07-30T21:13:41.399Z,9.98
2022-07-30T21:16:15.724Z,7.78
2022-07-30T21:18:51.897Z,8.10
2022-07-30T21:21:30.397Z,10.07
2022-07-30T21:24:12.400Z,7.93
2022-07-30T21:26:43.186Z,8.15
2022-07-30T21:29:13.422Z,9.70
2022-07-30T21:32:01.247Z,9.85
2022-07-30T21:34:42.052Z,7.38
2022-07-30T21:37:13.075Z,7.65
2022-07-30T21:39:47.433Z,10.95
2022-07-30T21:42:17.694Z,9.65
2022-07-30T21:44:56.097Z,8.23
2022-07-30T21:47:26.151Z,8.18
2022-07-30T21:49:56.413Z,7.63
2022-07-30T21:52:26.597Z,10.20
2022-07-30T21:54:58.076Z,9.68
2022-07-30T21:57:34.889Z,8.45
2022-07-30T22:00:10.756Z,9.25
2022-07-30T22:02:53.310Z,8.27
2022-07-30T22:05:38.610Z,7.60
2022-07-30T22:08:10.498Z,10.75
2022-07-30T22:10:43.619Z,7.95
2022-07-30T22:13:20.787Z,9.45
2022-07-30T22:15:53.373Z,16.40
2022-07-30T22:18:23.861Z,20.20
2022-07-30T22:20:55.536Z,11.85
2022-07-30T22:23:25.439Z,24.05
2022-07-30T22:26:00.072Z,19.02
2022-07-30T22:28:30.221Z,27.55
2022-07-30T22:31:00.289Z,18.65
2022-07-30T22:33:30.478Z,13.45
2022-07-30T22:36:00.988Z,19.50
2022-07-30T22:38:31.705Z,13.52
2022-07-30T22:41:04.266Z,8.07
2022-07-30T22:43:35.600Z,15.13
2022-07-30T22:46:30.519Z,13.63
2022-07-30T22:49:01.395Z,9.68
2022-07-30T22:51:58.682Z,13.32
2022-07-30T22:54:21.928Z,15.85
2022-07-30T22:56:54.256Z,19.10
2022-07-30T22:59:57.711Z,15.88
2022-07-30T23:02:15.459Z,9.10
2022-07-30T23:07:19.198Z,13.02
2022-07-30T23:09:51.532Z,6.85
2022-07-30T23:12:23.791Z,7.53
2022-07-30T23:12:31.416Z,9.52
2022-07-30T23:12:32.821Z,9.88
2022-07-30T23:14:54.729Z,10.02
2022-07-30T23:17:25.777Z,6.72
2022-07-30T23:19:55.787Z,9.75
2022-07-30T23:22:25.769Z,5.47
2022-07-30T23:24:55.639Z,4.75
2022-07-30T23:27:27.398Z,7.60
2022-07-30T23:29:57.604Z,4.80
2022-07-30T23:32:27.779Z,8.65
2022-07-30T23:34:57.819Z,10.75
2022-07-30T23:37:28.091Z,4.47
2022-07-30T23:39:59.367Z,4.07
2022-07-30T23:42:30.706Z,3.83
2022-07-30T23:45:01.827Z,5.38
2022-07-30T23:47:57.262Z,3.75
2022-07-30T23:50:22.281Z,3.60
2022-07-30T23:52:52.307Z,6.82
2022-07-30T23:55:23.594Z,6.05
2022-07-30T23:57:54.838Z,4.97
